createdAt,value
2023-03-26T00:00:26.954Z,10.18
2023-03-26T00:03:30.051Z,11.35
2023-03-26T00:06:38.677Z,14.02
2023-03-26T00:09:41.072Z,10.45
2023-03-26T00:12:43.168Z,10.57
2023-03-26T00:15:45.134Z,9.25
2023-03-26T00:18:48.985Z,6.40
2023-03-26T00:21:52.524Z,8.70
2023-03-26T00:24:57.056Z,4.57
2023-03-26T00:27:59.292Z,2.70
2023-03-26T00:31:02.137Z,1.48
2023-03-26T00:34:05.753Z,1.27
2023-03-26T00:37:08.991Z,0.30
2023-03-26T00:40:11.250Z,0.77
2023-03-26T00:43:22.611Z,1.05
2023-03-26T00:46:25.072Z,0.80
2023-03-26T00:49:27.545Z,0.60
2023-03-26T00:52:29.942Z,0.82
2023-03-26T00:55:31.915Z,0.80
2023-03-26T00:58:33.962Z,1.17
2023-03-26T01:01:36.138Z,1.75
2023-03-26T01:04:38.293Z,1.00
2023-03-26T01:07:42.748Z,1.30
2023-03-26T01:10:50.960Z,1.05
2023-03-26T01:13:57.406Z,0.80
2023-03-26T01:17:01.092Z,1.42
2023-03-26T01:20:13.263Z,2.73
2023-03-26T01:23:17.753Z,1.65
2023-03-26T01:26:49.009Z,0.90
2023-03-26T01:29:54.642Z,1.47
2023-03-26T01:33:00.848Z,2.10
2023-03-26T01:36:08.571Z,0.70
2023-03-26T01:39:18.703Z,0.98
2023-03-26T01:42:33.107Z,0.80
2023-03-26T01:45:36.401Z,0.60
2023-03-26T01:48:39.726Z,2.63
2023-03-26T01:51:42.130Z,0.60
2023-03-26T01:54:46.673Z,2.15
2023-03-26T01:58:12.240Z,1.63
2023-03-26T02:01:14.656Z,0.90
2023-03-26T02:04:26.908Z,2.28
2023-03-26T02:07:28.909Z,0.60
2023-03-26T02:10:34.819Z,0.98
2023-03-26T02:13:37.325Z,1.57
2023-03-26T02:16:39.758Z,0.80
2023-03-26T02:19:42.435Z,0.50
2023-03-26T02:22:46.182Z,0.90
2023-03-26T02:25:50.944Z,1.00
2023-03-26T02:28:53.024Z,1.05
2023-03-26T02:31:55.065Z,1.02
2023-03-26T02:34:57.456Z,3.38
2023-03-26T02:37:59.681Z,4.25
2023-03-26T02:41:02.171Z,0.50
2023-03-26T02:44:15.947Z,0.97
2023-03-26T02:47:33.862Z,0.63
2023-03-26T02:51:11.722Z,2.45
2023-03-26T02:54:26.961Z,0.60
2023-03-26T02:57:41.620Z,0.35
2023-03-26T03:00:58.212Z,2.85
2023-03-26T03:04:11.553Z,0.70
2023-03-26T03:07:17.340Z,1.90
2023-03-26T03:10:22.022Z,1.58
2023-03-26T03:13:46.921Z,1.10
2023-03-26T03:17:00.766Z,2.13
2023-03-26T03:20:02.853Z,2.25
2023-03-26T03:23:05.900Z,2.03
2023-03-26T03:26:15.632Z,2.27
2023-03-26T03:29:21.330Z,2.97
2023-03-26T03:32:24.766Z,1.23
2023-03-26T03:35:30.507Z,2.63
2023-03-26T03:38:34.770Z,1.35
2023-03-26T03:41:36.821Z,2.47
2023-03-26T03:44:41.572Z,2.58
2023-03-26T03:47:54.200Z,1.00
2023-03-26T03:51:03.799Z,1.33
2023-03-26T03:54:15.329Z,1.33
2023-03-26T03:57:22.041Z,4.93
2023-03-26T04:00:45.029Z,2.80
2023-03-26T04:04:06.029Z,7.20
2023-03-26T04:07:37.425Z,3.05
2023-03-26T04:10:39.475Z,4.70
2023-03-26T04:14:01.816Z,3.72
2023-03-26T04:17:24.605Z,2.63
2023-03-26T04:20:32.155Z,6.47
2023-03-26T04:23:35.782Z,1.42
2023-03-26T04:26:51.445Z,3.22
2023-03-26T04:29:58.678Z,4.37
2023-03-26T04:33:04.221Z,2.83
2023-03-26T04:36:09.254Z,2.30
2023-03-26T04:39:12.295Z,2.90
2023-03-26T04:42:46.609Z,2.75
2023-03-26T04:46:04.690Z,1.63
2023-03-26T04:49:13.465Z,1.65
2023-03-26T04:52:15.712Z,2.00
2023-03-26T04:56:15.298Z,2.92
2023-03-26T04:59:41.492Z,2.88
2023-03-26T05:02:50.140Z,3.63
2023-03-26T05:05:53.511Z,3.33
2023-03-26T05:08:55.934Z,3.65
2023-03-26T05:12:17.819Z,1.50
2023-03-26T05:15:35.077Z,4.00
2023-03-26T05:18:44.657Z,2.65
2023-03-26T05:21:46.601Z,2.15
2023-03-26T05:24:48.854Z,2.10
2023-03-26T05:27:50.986Z,1.60
2023-03-26T05:30:54.778Z,2.58
2023-03-26T05:34:00.579Z,3.87
2023-03-26T05:37:03.944Z,2.38
2023-03-26T05:40:21.525Z,2.55
2023-03-26T05:43:30.681Z,2.42
2023-03-26T05:46:54.711Z,2.00
2023-03-26T05:50:01.586Z,2.28
2023-03-26T05:53:04.143Z,3.17
2023-03-26T05:56:08.768Z,2.80
2023-03-26T05:59:28.996Z,3.15
2023-03-26T06:02:34.933Z,2.10
2023-03-26T06:05:57.612Z,3.10
2023-03-26T06:09:14.771Z,4.30
2023-03-26T06:12:17.785Z,1.38
2023-03-26T06:15:20.059Z,4.30
2023-03-26T06:18:26.240Z,2.67
2023-03-26T06:21:51.689Z,2.28
2023-03-26T06:25:00.494Z,2.00
2023-03-26T06:28:26.913Z,1.97
2023-03-26T06:31:39.078Z,2.53
2023-03-26T06:34:51.978Z,3.15
2023-03-26T06:37:54.490Z,2.92
2023-03-26T06:41:01.970Z,3.73
2023-03-26T06:44:27.119Z,2.97
2023-03-26T06:47:47.749Z,2.17
2023-03-26T06:50:50.205Z,2.83
2023-03-26T06:54:10.848Z,2.13
2023-03-26T06:57:45.008Z,4.47
2023-03-26T07:01:13.163Z,2.60
2023-03-26T07:04:33.920Z,1.30
2023-03-26T07:07:54.950Z,2.33
2023-03-26T07:11:16.883Z,0.90
2023-03-26T07:14:45.399Z,2.35
2023-03-26T07:18:08.024Z,1.70
2023-03-26T07:21:12.317Z,1.52
2023-03-26T07:24:15.047Z,1.67
2023-03-26T07:28:00.849Z,1.05
2023-03-26T07:31:23.615Z,0.93
2023-03-26T07:34:52.937Z,3.42
2023-03-26T07:38:26.796Z,2.80
2023-03-26T07:55:31.136Z,2.60
2023-03-26T07:59:02.129Z,1.67
2023-03-26T08:09:27.137Z,2.72
2023-03-26T08:12:38.312Z,2.17
2023-03-26T08:15:44.136Z,2.22
2023-03-26T08:18:55.259Z,3.20
2023-03-26T08:22:16.894Z,1.60
2023-03-26T08:25:21.546Z,3.77
2023-03-26T08:28:44.769Z,2.40
2023-03-26T08:31:47.129Z,1.90
2023-03-26T08:34:49.699Z,1.70
2023-03-26T08:37:52.050Z,0.85
2023-03-26T08:41:12.698Z,2.33
2023-03-26T08:44:14.779Z,1.50
2023-03-26T08:47:30.802Z,1.20
2023-03-26T08:50:32.851Z,2.40
2023-03-26T08:53:40.923Z,1.38
2023-03-26T08:56:54.610Z,1.70
2023-03-26T08:59:56.786Z,2.13
2023-03-26T09:03:01.608Z,1.38
2023-03-26T09:06:10.027Z,2.15
2023-03-26T09:09:27.392Z,1.35
2023-03-26T09:12:37.090Z,2.37
2023-03-26T09:15:41.605Z,1.33
2023-03-26T09:18:43.674Z,2.28
2023-03-26T09:22:09.853Z,2.00
2023-03-26T09:25:12.035Z,1.55
2023-03-26T09:28:33.002Z,2.70
2023-03-26T09:32:04.216Z,2.60
2023-03-26T09:35:18.141Z,2.22
2023-03-26T09:38:20.545Z,1.77
2023-03-26T09:41:37.724Z,1.77
2023-03-26T09:44:58.460Z,1.93
2023-03-26T09:48:19.030Z,1.97
2023-03-26T09:51:40.198Z,1.27
2023-03-26T09:54:46.484Z,1.80
2023-03-26T09:57:58.381Z,1.02
2023-03-26T10:01:06.774Z,2.33
2023-03-26T10:04:23.933Z,0.80
2023-03-26T10:07:44.913Z,2.58
2023-03-26T10:10:50.239Z,0.85
2023-03-26T10:14:19.004Z,1.23
2023-03-26T10:17:21.678Z,1.03
2023-03-26T10:20:32.935Z,1.23
2023-03-26T10:23:45.187Z,2.25
2023-03-26T10:27:09.309Z,1.90
2023-03-26T10:30:29.274Z,1.80
2023-03-26T10:33:36.301Z,2.10
2023-03-26T10:36:59.658Z,1.93
2023-03-26T10:40:20.356Z,1.67
2023-03-26T10:43:27.973Z,1.60
2023-03-26T10:46:45.358Z,2.95
2023-03-26T10:50:06.825Z,1.80
2023-03-26T10:53:12.911Z,1.73
2023-03-26T10:56:17.522Z,1.83
2023-03-26T10:59:19.642Z,4.47
2023-03-26T11:02:30.126Z,2.60
2023-03-26T11:05:47.982Z,1.63
2023-03-26T11:09:02.222Z,0.60
2023-03-26T11:12:26.339Z,1.30
2023-03-26T11:15:30.463Z,2.00
2023-03-26T11:18:43.641Z,0.60
2023-03-26T11:22:02.476Z,1.33
2023-03-26T11:25:07.554Z,1.70
2023-03-26T11:28:16.425Z,1.10
2023-03-26T11:31:18.584Z,1.10
2023-03-26T11:34:22.357Z,2.17
2023-03-26T11:37:35.958Z,0.93
2023-03-26T11:40:49.048Z,1.30
2023-03-26T11:44:03.958Z,1.65
2023-03-26T11:47:10.320Z,1.75
2023-03-26T11:50:16.404Z,0.70
2023-03-26T11:53:19.426Z,1.43
2023-03-26T11:56:32.229Z,0.80
2023-03-26T11:59:45.139Z,1.13
2023-03-26T12:02:58.746Z,1.15
2023-03-26T12:06:04.886Z,1.02
2023-03-26T12:09:19.980Z,1.50
2023-03-26T12:12:31.290Z,0.97
2023-03-26T12:15:34.671Z,2.10
2023-03-26T12:18:37.023Z,1.58
2023-03-26T12:21:51.937Z,1.80
2023-03-26T12:25:00.638Z,2.30
2023-03-26T12:28:21.479Z,2.00
2023-03-26T12:31:26.491Z,1.20
2023-03-26T12:34:31.263Z,1.83
2023-03-26T12:37:37.232Z,0.95
2023-03-26T12:40:40.175Z,1.60
2023-03-26T12:44:52.875Z,1.00
2023-03-26T12:48:00.712Z,0.82
2023-03-26T12:50:47.638Z,1.17
2023-03-26T12:53:58.600Z,0.60
2023-03-26T12:57:12.493Z,1.03
2023-03-26T13:00:35.973Z,1.43
2023-03-26T13:03:38.875Z,0.93
2023-03-26T13:07:00.307Z,1.33
2023-03-26T13:10:27.173Z,2.05
2023-03-26T13:13:45.763Z,1.27
2023-03-26T13:17:00.048Z,0.53
2023-03-26T13:20:02.089Z,0.70
2023-03-26T13:23:17.574Z,1.00
2023-03-26T13:26:31.737Z,0.55
2023-03-26T13:29:51.828Z,0.93
2023-03-26T13:32:57.512Z,0.97
2023-03-26T13:36:19.209Z,0.52
2023-03-26T13:39:36.045Z,0.77
2023-03-26T13:42:40.764Z,0.65
2023-03-26T13:46:01.902Z,0.57
2023-03-26T13:49:12.994Z,0.80
2023-03-26T13:52:21.157Z,1.25
2023-03-26T13:55:29.454Z,0.77
2023-03-26T13:58:44.732Z,0.70
2023-03-26T14:01:51.158Z,0.93
2023-03-26T14:05:02.134Z,0.63
2023-03-26T14:08:04.827Z,1.25
2023-03-26T14:11:29.587Z,1.67
2023-03-26T14:14:38.150Z,0.50
2023-03-26T14:17:43.574Z,0.97
2023-03-26T14:21:03.982Z,0.87
2023-03-26T14:24:06.697Z,1.40
2023-03-26T14:27:08.728Z,1.45
2023-03-26T14:30:13.309Z,1.20
2023-03-26T14:33:34.280Z,0.67
2023-03-26T14:36:55.072Z,0.73
2023-03-26T14:39:57.107Z,1.25
2023-03-26T14:43:05.202Z,0.82
2023-03-26T14:46:26.765Z,0.90
2023-03-26T14:49:31.184Z,0.70
2023-03-26T14:52:46.561Z,0.60
2023-03-26T14:56:15.732Z,2.35
2023-03-26T14:59:36.610Z,0.88
2023-03-26T15:02:44.498Z,1.40
2023-03-26T15:06:03.582Z,2.30
2023-03-26T15:09:21.439Z,0.90
2023-03-26T15:12:38.720Z,1.20
2023-03-26T15:15:44.002Z,0.88
2023-03-26T15:19:08.037Z,0.77
2023-03-26T15:22:36.374Z,0.87
2023-03-26T15:25:39.943Z,0.70
2023-03-26T15:28:51.486Z,0.43
2023-03-26T15:32:12.333Z,1.15
2023-03-26T15:35:23.625Z,1.70
2023-03-26T15:38:32.929Z,1.10
2023-03-26T15:41:47.011Z,0.83
2023-03-26T15:45:03.679Z,1.75
2023-03-26T15:48:11.895Z,1.02
2023-03-26T15:51:23.625Z,0.88
2023-03-26T15:54:29.609Z,1.73
2023-03-26T15:57:41.196Z,0.77
2023-03-26T16:01:19.190Z,0.98
2023-03-26T16:04:29.568Z,1.45
2023-03-26T16:07:34.871Z,1.90
2023-03-26T16:10:51.446Z,0.97
2023-03-26T16:14:12.630Z,0.90
2023-03-26T16:17:18.662Z,1.90
2023-03-26T16:20:23.425Z,2.58
2023-03-26T16:23:28.771Z,2.00
2023-03-26T16:26:49.497Z,1.13
2023-03-26T16:30:00.643Z,1.93
2023-03-26T16:33:09.600Z,4.05
2023-03-26T16:36:34.830Z,17.08
2023-03-26T16:39:40.769Z,72.22
2023-03-26T16:42:49.826Z,6.33
2023-03-26T16:46:01.235Z,11.40
2023-03-26T16:49:05.331Z,8.80
2023-03-26T16:52:24.482Z,15.25
2023-03-26T16:55:45.838Z,14.25
2023-03-26T16:58:58.726Z,24.67
2023-03-26T17:02:05.200Z,13.00
2023-03-26T17:05:07.583Z,40.85
2023-03-26T17:08:35.430Z,17.58
2023-03-26T17:11:48.219Z,14.95
2023-03-26T17:14:56.644Z,23.53
2023-03-26T17:18:01.773Z,8.87
2023-03-26T17:21:04.778Z,11.65
2023-03-26T17:24:15.491Z,14.15
2023-03-26T17:27:39.142Z,28.75
2023-03-26T17:30:48.356Z,24.30
2023-03-26T17:33:50.824Z,10.43
2023-03-26T17:36:56.594Z,17.77
2023-03-26T17:39:59.664Z,19.98
2023-03-26T17:43:07.895Z,29.55
2023-03-26T17:46:21.109Z,40.80
2023-03-26T17:49:28.883Z,13.33
2023-03-26T17:52:51.120Z,19.05
2023-03-26T17:55:53.662Z,21.27
2023-03-26T17:59:12.144Z,14.68
2023-03-26T18:02:18.964Z,21.07
2023-03-26T18:05:21.426Z,25.00
2023-03-26T18:08:29.319Z,21.35
2023-03-26T18:11:37.488Z,18.13
2023-03-26T18:14:43.240Z,14.88
2023-03-26T18:17:46.323Z,15.40
2023-03-26T18:20:49.184Z,17.70
2023-03-26T18:23:51.530Z,24.05
2023-03-26T18:26:58.549Z,15.23
2023-03-26T18:30:03.150Z,13.35
2023-03-26T18:33:13.072Z,11.77
2023-03-26T18:36:16.199Z,12.43
2023-03-26T18:39:18.493Z,15.07
2023-03-26T18:42:25.380Z,12.50
2023-03-26T18:45:34.126Z,12.77
2023-03-26T18:48:36.608Z,20.10
2023-03-26T18:51:50.034Z,19.07
2023-03-26T18:54:56.442Z,20.20
2023-03-26T18:57:58.756Z,14.93
2023-03-26T19:01:01.940Z,9.30
2023-03-26T19:04:05.270Z,8.73
2023-03-26T19:07:10.096Z,36.43
2023-03-26T19:10:16.954Z,19.95
2023-03-26T19:13:22.176Z,10.25
2023-03-26T19:16:25.013Z,13.20
2023-03-26T19:19:29.693Z,22.80
2023-03-26T19:22:31.747Z,17.57
2023-03-26T19:25:37.010Z,12.98
2023-03-26T19:28:49.004Z,15.88
2023-03-26T19:31:52.270Z,16.70
2023-03-26T19:34:54.333Z,14.87
2023-03-26T19:37:56.446Z,18.43
2023-03-26T19:40:59.322Z,16.92
2023-03-26T19:44:02.686Z,16.30
2023-03-26T19:47:12.924Z,9.05
2023-03-26T19:50:26.201Z,8.57
2023-03-26T19:53:33.267Z,7.10
2023-03-26T19:56:35.733Z,8.85
2023-03-26T19:59:37.937Z,6.10
2023-03-26T20:02:40.896Z,6.05
2023-03-26T20:05:43.387Z,5.40
2023-03-26T20:08:45.940Z,9.03
2023-03-26T20:11:47.887Z,8.30
2023-03-26T20:14:50.338Z,8.25
2023-03-26T20:17:56.509Z,8.75
2023-03-26T20:20:58.773Z,8.77
2023-03-26T20:24:01.655Z,9.30
2023-03-26T20:27:03.713Z,8.23
2023-03-26T20:30:07.263Z,7.43
2023-03-26T20:33:14.314Z,7.43
2023-03-26T20:36:33.857Z,8.20
2023-03-26T20:39:37.856Z,7.63
2023-03-26T20:42:40.455Z,6.53
2023-03-26T20:45:42.806Z,9.90
2023-03-26T20:48:45.732Z,10.88
2023-03-26T20:51:48.945Z,20.07
2023-03-26T20:54:52.161Z,15.00
2023-03-26T20:57:55.017Z,7.55
2023-03-26T21:01:00.392Z,6.57
2023-03-26T21:04:04.496Z,6.85
2023-03-26T21:07:17.645Z,5.03
2023-03-26T21:10:20.664Z,5.33
2023-03-26T21:13:39.746Z,5.18
2023-03-26T21:16:42.160Z,5.80
2023-03-26T21:19:44.488Z,4.85
2023-03-26T21:22:58.296Z,3.80
2023-03-26T21:26:07.166Z,5.57
2023-03-26T21:29:10.079Z,20.25
2023-03-26T21:32:13.640Z,20.40
2023-03-26T21:35:16.652Z,63.00
2023-03-26T21:38:22.413Z,88.90
2023-03-26T21:41:24.452Z,13.43
2023-03-26T21:44:27.194Z,14.52
2023-03-26T21:47:29.847Z,8.45
2023-03-26T21:50:32.550Z,4.80
2023-03-26T21:53:34.877Z,4.57
2023-03-26T21:56:36.873Z,3.23
2023-03-26T21:59:42.326Z,5.03
2023-03-26T22:02:50.419Z,3.67
2023-03-26T22:05:55.217Z,3.67
2023-03-26T22:08:58.013Z,5.03
2023-03-26T22:12:00.113Z,8.17
2023-03-26T22:15:04.492Z,5.45
2023-03-26T22:18:07.410Z,6.20
2023-03-26T22:21:09.898Z,4.95
2023-03-26T22:24:12.261Z,14.60
2023-03-26T22:27:16.082Z,12.00
2023-03-26T22:30:18.893Z,7.03
2023-03-26T22:33:21.306Z,6.57
2023-03-26T22:36:25.389Z,7.73
2023-03-26T22:39:27.753Z,6.95
2023-03-26T22:42:29.810Z,7.30
2023-03-26T22:45:32.639Z,9.80
2023-03-26T22:48:35.078Z,8.20
2023-03-26T22:51:37.159Z,8.73
2023-03-26T22:54:39.284Z,6.32
2023-03-26T22:57:42.769Z,6.80
2023-03-26T23:00:46.365Z,6.78
2023-03-26T23:03:48.642Z,6.37
2023-03-26T23:06:50.701Z,9.25
2023-03-26T23:09:53.858Z,6.93
2023-03-26T23:12:55.853Z,6.63
2023-03-26T23:15:57.988Z,6.60
2023-03-26T23:19:01.461Z,8.32
2023-03-26T23:22:04.009Z,6.75
2023-03-26T23:25:06.816Z,7.75
2023-03-26T23:28:09.953Z,11.67
2023-03-26T23:31:12.584Z,7.32
2023-03-26T23:34:16.311Z,7.00
2023-03-26T23:37:23.486Z,6.30
2023-03-26T23:40:25.951Z,5.50
2023-03-26T23:43:28.366Z,5.82
2023-03-26T23:46:33.125Z,4.30
2023-03-26T23:49:35.290Z,4.60
2023-03-26T23:52:37.692Z,4.87
2023-03-26T23:55:39.785Z,5.72
2023-03-26T23:58:42.941Z,4.65
